createdAt,value
2023-05-17T00:02:00.350Z,13.23
2023-05-17T00:04:26.824Z,13.04
2023-05-17T00:06:53.317Z,13.01
2023-05-17T00:09:19.762Z,13.35
2023-05-17T00:11:46.238Z,13.25
2023-05-17T00:14:12.707Z,13.16
2023-05-17T00:16:39.171Z,13.33
2023-05-17T00:19:05.751Z,13.19
2023-05-17T00:21:32.448Z,13.47
2023-05-17T00:23:58.996Z,13.06
2023-05-17T00:26:25.479Z,13.07
2023-05-17T00:28:51.982Z,13.09
2023-05-17T00:31:18.411Z,13.05
2023-05-17T00:33:44.847Z,13.13
2023-05-17T00:36:11.281Z,13.09
2023-05-17T00:38:37.722Z,13.08
2023-05-17T00:41:04.252Z,12.94
2023-05-17T00:43:30.700Z,13.01
2023-05-17T00:45:57.147Z,13.09
2023-05-17T00:48:23.823Z,12.98
2023-05-17T00:50:50.553Z,13.01
2023-05-17T00:53:16.999Z,13.02
2023-05-17T00:55:43.490Z,12.90
2023-05-17T00:58:09.951Z,12.83
2023-05-17T01:00:36.421Z,12.64
2023-05-17T01:03:02.918Z,12.63
2023-05-17T01:05:29.510Z,12.53
2023-05-17T01:07:56.088Z,12.64
2023-05-17T01:10:22.557Z,12.76
2023-05-17T01:12:48.998Z,12.60
2023-05-17T01:15:15.494Z,12.53
2023-05-17T01:17:42.056Z,12.61
2023-05-17T01:20:08.898Z,12.58
2023-05-17T01:22:35.797Z,12.40
2023-05-17T01:25:02.215Z,12.74
2023-05-17T01:27:28.654Z,12.61
2023-05-17T01:29:55.161Z,12.41
2023-05-17T01:32:21.638Z,12.52
2023-05-17T01:34:48.071Z,12.45
2023-05-17T01:37:14.503Z,12.60
2023-05-17T01:39:41.000Z,12.46
2023-05-17T01:42:07.546Z,12.58
2023-05-17T01:44:33.982Z,12.57
2023-05-17T01:47:00.545Z,12.39
2023-05-17T01:49:26.981Z,12.28
2023-05-17T01:51:53.441Z,12.37
2023-05-17T01:54:19.884Z,12.42
2023-05-17T01:56:46.397Z,12.29
2023-05-17T01:59:12.864Z,12.39
2023-05-17T02:01:39.299Z,12.32
2023-05-17T02:04:05.845Z,12.25
2023-05-17T02:06:32.418Z,12.16
2023-05-17T02:08:58.844Z,12.22
2023-05-17T02:11:25.337Z,12.22
2023-05-17T02:13:51.793Z,12.01
2023-05-17T02:16:18.241Z,12.07
2023-05-17T02:18:44.785Z,12.12
2023-05-17T02:21:11.254Z,12.14
2023-05-17T02:23:37.729Z,12.31
2023-05-17T02:26:04.158Z,12.31
2023-05-17T02:28:30.688Z,12.18
2023-05-17T02:30:57.139Z,12.23
2023-05-17T02:33:23.627Z,12.18
2023-05-17T02:35:50.207Z,12.17
2023-05-17T02:38:16.641Z,12.44
2023-05-17T02:40:43.057Z,12.23
2023-05-17T02:43:09.531Z,12.28
2023-05-17T02:45:36.251Z,12.40
2023-05-17T02:48:02.775Z,12.37
2023-05-17T02:50:29.313Z,12.45
2023-05-17T02:52:55.803Z,12.30
2023-05-17T02:55:22.272Z,12.39
2023-05-17T02:57:48.710Z,12.14
2023-05-17T03:00:15.410Z,11.94
2023-05-17T03:02:41.999Z,11.95
2023-05-17T03:05:08.480Z,11.95
2023-05-17T03:07:34.962Z,12.04
2023-05-17T03:10:01.399Z,11.90
2023-05-17T03:12:29.431Z,11.93
2023-05-17T03:14:56.129Z,11.98
2023-05-17T03:17:22.671Z,11.69
2023-05-17T03:19:49.285Z,11.82
2023-05-17T03:22:15.881Z,12.00
2023-05-17T03:24:42.311Z,11.94
2023-05-17T03:27:08.832Z,11.96
2023-05-17T03:29:35.320Z,11.88
2023-05-17T03:32:01.777Z,12.13
2023-05-17T03:34:28.257Z,11.96
2023-05-17T03:36:56.831Z,12.11
2023-05-17T03:39:23.322Z,11.95
2023-05-17T03:41:49.760Z,11.95
2023-05-17T03:44:16.204Z,12.18
2023-05-17T03:46:42.645Z,12.24
2023-05-17T03:49:09.120Z,11.95
2023-05-17T03:51:35.632Z,11.88
2023-05-17T03:54:02.124Z,11.84
2023-05-17T03:56:28.553Z,11.91
2023-05-17T03:58:55.025Z,12.16
2023-05-17T04:01:21.703Z,11.98
2023-05-17T04:03:48.247Z,11.97
2023-05-17T04:06:14.792Z,12.09
2023-05-17T04:08:41.423Z,12.18
2023-05-17T04:11:07.882Z,12.21
2023-05-17T04:13:34.321Z,12.11
2023-05-17T04:16:00.972Z,11.95
2023-05-17T04:18:27.400Z,11.90
2023-05-17T04:20:53.919Z,11.98
2023-05-17T04:23:20.350Z,11.88
2023-05-17T04:25:46.862Z,12.05
2023-05-17T04:28:13.386Z,12.12
2023-05-17T04:30:39.883Z,12.11
2023-05-17T04:33:06.416Z,12.25
2023-05-17T04:35:32.884Z,12.17
2023-05-17T04:37:59.533Z,12.14
2023-05-17T04:40:26.091Z,12.02
2023-05-17T04:42:52.573Z,11.99
2023-05-17T04:45:19.093Z,12.15
2023-05-17T04:47:45.596Z,12.14
2023-05-17T04:50:12.101Z,12.06
2023-05-17T04:52:38.562Z,12.26
2023-05-17T04:55:04.995Z,12.40
2023-05-17T04:57:31.434Z,12.35
2023-05-17T04:59:57.994Z,12.20
2023-05-17T05:02:24.632Z,11.88
2023-05-17T05:04:51.086Z,11.84
2023-05-17T05:07:17.533Z,11.96
2023-05-17T05:09:43.964Z,11.94
2023-05-17T05:12:10.387Z,11.86
2023-05-17T05:14:36.826Z,11.68
2023-05-17T05:17:03.352Z,11.78
2023-05-17T05:19:29.909Z,11.90
2023-05-17T05:21:56.384Z,12.01
2023-05-17T05:24:22.816Z,12.15
2023-05-17T05:26:49.386Z,12.24
2023-05-17T05:29:15.828Z,11.99
2023-05-17T05:31:45.405Z,12.08
2023-05-17T05:34:11.961Z,12.07
2023-05-17T05:36:38.520Z,12.06
2023-05-17T05:39:05.839Z,12.22
2023-05-17T05:41:33.175Z,12.29
2023-05-17T05:43:59.573Z,12.20
2023-05-17T05:46:26.103Z,12.26
2023-05-17T05:48:52.731Z,12.27
2023-05-17T05:51:21.270Z,12.29
2023-05-17T05:53:48.957Z,12.26
2023-05-17T05:56:15.411Z,12.34
2023-05-17T05:58:42.112Z,12.30
2023-05-17T06:01:08.581Z,12.64
2023-05-17T06:03:35.215Z,12.65
2023-05-17T06:06:01.719Z,12.73
2023-05-17T06:08:28.280Z,12.84
2023-05-17T06:10:54.723Z,12.67
2023-05-17T06:13:21.144Z,12.57
2023-05-17T06:15:47.584Z,12.55
2023-05-17T06:18:14.133Z,12.64
2023-05-17T06:20:40.728Z,12.53
2023-05-17T06:23:07.217Z,12.61
2023-05-17T06:25:33.706Z,12.70
2023-05-17T06:28:00.139Z,12.65
2023-05-17T06:30:26.665Z,12.72
2023-05-17T06:32:53.216Z,12.74
2023-05-17T06:35:19.708Z,13.23
2023-05-17T06:37:46.218Z,13.37
2023-05-17T06:40:16.418Z,13.57
2023-05-17T06:42:57.888Z,13.49
2023-05-17T06:45:24.312Z,13.48
2023-05-17T06:47:50.951Z,13.59
2023-05-17T06:50:17.444Z,13.49
2023-05-17T06:52:43.928Z,13.25
2023-05-17T06:55:10.380Z,13.14
2023-05-17T06:57:39.780Z,13.24
2023-05-17T07:00:06.392Z,13.36
2023-05-17T07:02:34.592Z,13.37
2023-05-17T07:05:01.468Z,13.38
2023-05-17T07:07:27.986Z,13.46
2023-05-17T07:09:54.425Z,13.39
2023-05-17T07:12:21.094Z,13.70
2023-05-17T07:14:47.677Z,13.62
2023-05-17T07:17:14.224Z,13.60
2023-05-17T07:19:40.755Z,13.46
2023-05-17T07:22:07.327Z,13.34
2023-05-17T07:24:33.913Z,13.45
2023-05-17T07:27:00.539Z,13.19
2023-05-17T07:29:27.015Z,13.32
2023-05-17T07:31:53.457Z,13.10
2023-05-17T07:34:20.012Z,13.09
2023-05-17T07:36:46.562Z,13.33
2023-05-17T07:39:13.016Z,13.69
2023-05-17T07:41:39.585Z,13.92
2023-05-17T07:44:06.110Z,13.69
2023-05-17T07:46:34.807Z,13.79
2023-05-17T07:49:01.445Z,13.89
2023-05-17T07:51:28.075Z,13.72
2023-05-17T07:53:54.603Z,13.91
2023-05-17T07:56:21.022Z,13.90
2023-05-17T07:58:47.483Z,13.68
2023-05-17T08:01:13.924Z,13.57
2023-05-17T08:03:40.378Z,13.97
2023-05-17T08:06:06.870Z,13.91
2023-05-17T08:08:33.303Z,13.85
2023-05-17T08:10:59.764Z,13.97
2023-05-17T08:13:26.189Z,13.91
2023-05-17T08:16:01.174Z,13.75
2023-05-17T08:18:31.743Z,14.40
2023-05-17T08:20:58.277Z,14.57
2023-05-17T08:23:24.694Z,14.74
2023-05-17T08:25:51.221Z,14.65
2023-05-17T08:28:17.742Z,14.33
2023-05-17T08:30:44.307Z,14.25
2023-05-17T08:33:10.829Z,14.45
2023-05-17T08:35:37.316Z,14.39
2023-05-17T08:38:03.762Z,14.31
2023-05-17T08:40:33.461Z,14.86
2023-05-17T08:42:59.973Z,14.85
2023-05-17T08:45:26.770Z,15.06
2023-05-17T08:47:53.391Z,15.08
2023-05-17T08:50:19.984Z,15.25
2023-05-17T08:52:46.505Z,15.27
2023-05-17T08:55:12.963Z,15.06
2023-05-17T08:57:39.420Z,14.81
2023-05-17T09:00:05.869Z,15.16
2023-05-17T09:02:32.396Z,15.32
2023-05-17T09:04:58.978Z,15.62
2023-05-17T09:07:25.549Z,15.79
2023-05-17T09:09:52.001Z,15.56
2023-05-17T09:12:18.412Z,15.01
2023-05-17T09:14:44.868Z,15.05
2023-05-17T09:17:11.373Z,15.27
2023-05-17T09:19:37.872Z,15.38
2023-05-17T09:22:04.566Z,15.27
2023-05-17T09:24:31.133Z,15.35
2023-05-17T09:26:57.622Z,15.07
2023-05-17T09:29:24.049Z,15.58
2023-05-17T09:31:50.562Z,15.63
2023-05-17T09:34:17.025Z,15.29
2023-05-17T09:36:43.563Z,15.52
2023-05-17T09:39:10.113Z,15.50
2023-05-17T09:41:36.561Z,15.82
2023-05-17T09:44:02.990Z,15.88
2023-05-17T09:46:29.452Z,15.43
2023-05-17T09:48:56.088Z,15.34
2023-05-17T09:51:22.612Z,15.17
2023-05-17T09:53:49.040Z,15.63
2023-05-17T09:56:15.649Z,15.41
2023-05-17T09:58:42.095Z,15.40
2023-05-17T10:01:08.559Z,15.53
2023-05-17T10:03:35.222Z,15.76
2023-05-17T10:06:01.839Z,15.98
2023-05-17T10:08:28.269Z,15.94
2023-05-17T10:10:54.726Z,15.92
2023-05-17T10:13:21.164Z,15.52
2023-05-17T10:15:47.591Z,15.45
2023-05-17T10:18:14.208Z,15.44
2023-05-17T10:20:40.795Z,15.17
2023-05-17T10:23:07.381Z,15.08
2023-05-17T10:25:33.799Z,15.29
2023-05-17T10:28:00.231Z,15.44
2023-05-17T10:30:26.685Z,15.43
2023-05-17T10:32:53.290Z,15.53
2023-05-17T10:35:19.778Z,15.84
2023-05-17T10:37:46.429Z,15.82
2023-05-17T10:40:12.872Z,15.40
2023-05-17T10:42:39.351Z,15.62
2023-05-17T10:45:05.802Z,15.40
2023-05-17T10:47:32.314Z,15.65
2023-05-17T10:49:58.844Z,15.99
2023-05-17T10:52:25.276Z,16.15
2023-05-17T10:54:52.076Z,16.26
2023-05-17T10:57:18.583Z,16.14
2023-05-17T10:59:45.024Z,16.35
2023-05-17T11:02:11.448Z,16.36
2023-05-17T11:04:38.165Z,16.25
2023-05-17T11:07:06.974Z,16.56
2023-05-17T11:09:34.860Z,16.68
2023-05-17T11:12:01.492Z,16.64
2023-05-17T11:14:28.673Z,16.50
2023-05-17T11:16:58.012Z,16.83
2023-05-17T11:19:24.866Z,16.76
2023-05-17T11:21:51.334Z,16.43
2023-05-17T11:24:18.909Z,16.43
2023-05-17T11:26:46.213Z,16.44
2023-05-17T11:29:12.711Z,16.42
2023-05-17T11:31:39.163Z,16.36
2023-05-17T11:34:05.679Z,16.12
2023-05-17T11:36:32.224Z,16.36
2023-05-17T11:39:07.870Z,16.12
2023-05-17T11:41:34.901Z,16.15
2023-05-17T11:44:01.330Z,16.12
2023-05-17T11:46:27.829Z,16.20
2023-05-17T11:48:54.604Z,16.57
2023-05-17T11:51:23.867Z,16.39
2023-05-17T11:53:51.512Z,16.54
2023-05-17T11:56:19.255Z,16.36
2023-05-17T11:58:47.206Z,16.50
2023-05-17T12:01:13.695Z,16.48
2023-05-17T12:03:40.113Z,16.34
2023-05-17T12:06:06.608Z,16.63
2023-05-17T12:08:33.116Z,16.73
2023-05-17T12:10:59.607Z,16.55
2023-05-17T12:13:26.076Z,16.88
2023-05-17T12:15:52.546Z,16.77
2023-05-17T12:18:19.053Z,16.70
2023-05-17T12:20:45.537Z,17.03
2023-05-17T12:23:11.977Z,16.99
2023-05-17T12:25:38.410Z,17.00
2023-05-17T12:28:04.858Z,17.16
2023-05-17T12:30:31.407Z,17.04
2023-05-17T12:32:58.156Z,16.76
2023-05-17T12:35:24.673Z,16.85
2023-05-17T12:37:51.146Z,16.86
2023-05-17T12:40:17.659Z,17.38
2023-05-17T12:42:44.092Z,17.62
2023-05-17T12:45:10.558Z,17.54
2023-05-17T12:47:37.070Z,17.58
2023-05-17T12:50:03.572Z,17.80
2023-05-17T12:52:29.996Z,17.69
2023-05-17T12:54:56.411Z,17.75
2023-05-17T12:57:22.862Z,17.36
2023-05-17T12:59:49.350Z,17.81
2023-05-17T13:02:15.986Z,17.49
2023-05-17T13:04:42.516Z,17.55
2023-05-17T13:07:08.984Z,17.74
2023-05-17T13:09:35.402Z,17.79
2023-05-17T13:12:02.044Z,18.07
2023-05-17T13:14:28.498Z,18.43
2023-05-17T13:16:55.009Z,18.42
2023-05-17T13:19:21.854Z,18.49
2023-05-17T13:21:48.428Z,18.46
2023-05-17T13:24:14.913Z,18.56
2023-05-17T13:26:41.352Z,18.48
2023-05-17T13:29:07.825Z,18.88
2023-05-17T13:31:34.356Z,18.88
2023-05-17T13:34:00.953Z,19.07
2023-05-17T13:36:27.463Z,18.42
2023-05-17T13:38:53.926Z,18.84
2023-05-17T13:41:20.366Z,19.06
2023-05-17T13:43:46.952Z,19.57
2023-05-17T13:46:13.787Z,19.66
2023-05-17T13:48:42.635Z,19.20
2023-05-17T13:51:09.548Z,19.32
2023-05-17T13:53:35.992Z,19.38
2023-05-17T13:56:02.490Z,18.62
2023-05-17T13:58:28.960Z,18.87
2023-05-17T14:00:55.398Z,18.53
2023-05-17T14:03:21.950Z,18.72
2023-05-17T14:05:48.532Z,19.10
2023-05-17T14:08:14.990Z,19.40
2023-05-17T14:10:41.476Z,19.14
2023-05-17T14:13:08.148Z,19.36
2023-05-17T14:15:34.638Z,19.62
2023-05-17T14:18:01.116Z,19.43
2023-05-17T14:20:28.180Z,19.14
2023-05-17T14:22:54.964Z,19.58
2023-05-17T14:25:21.633Z,19.40
2023-05-17T14:27:48.063Z,19.89
2023-05-17T14:30:14.549Z,19.46
2023-05-17T14:32:41.035Z,20.37
2023-05-17T14:35:07.655Z,19.87
2023-05-17T14:37:34.167Z,19.36
2023-05-17T14:40:06.387Z,19.43
2023-05-17T14:42:33.486Z,20.65
2023-05-17T14:44:59.944Z,20.29
2023-05-17T14:47:26.437Z,20.53
2023-05-17T14:49:53.089Z,20.25
2023-05-17T14:52:19.557Z,19.85
2023-05-17T14:54:46.090Z,20.40
2023-05-17T14:57:12.545Z,20.53
2023-05-17T14:59:39.080Z,21.06
2023-05-17T15:02:05.614Z,20.49
2023-05-17T15:04:32.204Z,20.64
2023-05-17T15:06:58.744Z,20.30
2023-05-17T15:09:25.241Z,20.33
2023-05-17T15:11:51.686Z,19.86
2023-05-17T15:14:18.188Z,19.75
2023-05-17T15:16:44.713Z,19.79
2023-05-17T15:19:11.230Z,18.97
2023-05-17T15:21:37.717Z,19.20
2023-05-17T15:24:04.166Z,19.09
2023-05-17T15:26:30.627Z,19.23
2023-05-17T15:28:57.095Z,19.46
2023-05-17T15:31:23.587Z,20.00
2023-05-17T15:33:50.118Z,20.29
2023-05-17T15:36:16.575Z,19.67
2023-05-17T15:38:43.136Z,19.34
2023-05-17T15:41:09.593Z,19.00
2023-05-17T15:43:36.101Z,19.10
2023-05-17T15:46:02.749Z,20.08
2023-05-17T15:48:29.396Z,19.87
2023-05-17T15:50:56.156Z,19.19
2023-05-17T15:53:22.640Z,18.84
2023-05-17T15:55:49.057Z,19.22
2023-05-17T15:58:15.780Z,19.76
2023-05-17T16:00:42.235Z,19.12
2023-05-17T16:03:08.727Z,18.73
2023-05-17T16:05:35.181Z,18.71
2023-05-17T16:08:01.681Z,18.42
2023-05-17T16:10:28.136Z,18.29
2023-05-17T16:12:54.566Z,18.60
2023-05-17T16:15:21.036Z,18.45
2023-05-17T16:17:47.587Z,18.34
2023-05-17T16:20:14.070Z,18.00
2023-05-17T16:22:40.485Z,17.77
2023-05-17T16:25:06.968Z,17.63
2023-05-17T16:27:33.411Z,17.69
2023-05-17T16:29:59.917Z,17.32
2023-05-17T16:32:26.626Z,17.78
2023-05-17T16:34:53.126Z,17.72
2023-05-17T16:37:19.688Z,17.48
2023-05-17T16:39:46.431Z,17.57
2023-05-17T16:42:12.923Z,17.72
2023-05-17T16:44:39.402Z,17.71
2023-05-17T16:47:05.957Z,17.75
2023-05-17T16:49:32.450Z,17.77
2023-05-17T16:51:58.900Z,18.05
2023-05-17T16:54:25.545Z,18.06
2023-05-17T16:56:52.087Z,18.06
2023-05-17T16:59:18.525Z,17.99
2023-05-17T17:01:46.905Z,17.78
2023-05-17T17:04:13.480Z,17.84
2023-05-17T17:06:40.119Z,17.61
2023-05-17T17:09:08.246Z,17.63
2023-05-17T17:11:34.913Z,17.57
2023-05-17T17:14:01.372Z,17.40
2023-05-17T17:16:27.924Z,17.32
2023-05-17T17:18:54.674Z,17.18
2023-05-17T17:21:21.202Z,17.13
2023-05-17T17:23:47.718Z,17.11
2023-05-17T17:26:14.191Z,17.07
2023-05-17T17:28:40.644Z,16.89
2023-05-17T17:31:07.117Z,17.00
2023-05-17T17:33:33.606Z,17.05
2023-05-17T17:36:00.080Z,17.27
2023-05-17T17:38:26.584Z,16.93
2023-05-17T17:40:53.015Z,16.98
2023-05-17T17:43:19.453Z,16.62
2023-05-17T17:45:45.886Z,16.96
2023-05-17T17:48:13.683Z,16.94
2023-05-17T17:50:40.205Z,16.82
2023-05-17T17:53:06.652Z,16.85
2023-05-17T17:55:33.085Z,16.72
2023-05-17T17:57:59.825Z,16.56
2023-05-17T18:00:26.268Z,16.55
2023-05-17T18:02:52.781Z,16.69
2023-05-17T18:05:19.304Z,16.68
2023-05-17T18:07:45.789Z,16.59
2023-05-17T18:10:12.607Z,16.90
2023-05-17T18:12:39.073Z,16.58
2023-05-17T18:15:05.523Z,16.93
2023-05-17T18:17:32.017Z,17.08
2023-05-17T18:19:58.548Z,16.98
2023-05-17T18:22:25.017Z,17.14
2023-05-17T18:24:51.616Z,17.13
2023-05-17T18:27:18.071Z,16.87
2023-05-17T18:29:44.639Z,16.51
2023-05-17T18:32:11.206Z,16.72
2023-05-17T18:34:37.661Z,16.45
2023-05-17T18:37:04.202Z,16.64
2023-05-17T18:39:30.729Z,16.68
2023-05-17T18:41:57.173Z,16.58
2023-05-17T18:44:23.610Z,16.75
2023-05-17T18:46:50.195Z,16.68
2023-05-17T18:49:16.716Z,16.68
2023-05-17T18:51:43.161Z,16.65
2023-05-17T18:54:09.668Z,16.71
2023-05-17T18:56:36.155Z,16.33
2023-05-17T18:59:02.658Z,16.31
2023-05-17T19:01:29.150Z,16.15
2023-05-17T19:03:55.936Z,16.01
2023-05-17T19:06:22.445Z,16.16
2023-05-17T19:08:48.935Z,16.14
2023-05-17T19:11:15.379Z,15.93
2023-05-17T19:13:41.806Z,15.96
2023-05-17T19:16:08.324Z,15.75
2023-05-17T19:18:34.964Z,15.77
2023-05-17T19:21:01.512Z,15.74
2023-05-17T19:23:28.072Z,15.53
2023-05-17T19:25:54.634Z,15.74
2023-05-17T19:28:21.075Z,15.56
2023-05-17T19:30:47.826Z,15.70
2023-05-17T19:33:14.271Z,15.58
2023-05-17T19:35:40.706Z,15.65
2023-05-17T19:38:07.187Z,15.71
2023-05-17T19:40:33.779Z,15.65
2023-05-17T19:43:00.318Z,15.53
2023-05-17T19:45:26.880Z,15.49
2023-05-17T19:47:53.482Z,15.64
2023-05-17T19:50:20.143Z,15.58
2023-05-17T19:52:46.626Z,15.48
2023-05-17T19:55:13.059Z,15.18
2023-05-17T19:57:39.524Z,15.18
2023-05-17T20:00:06.006Z,14.99
2023-05-17T20:02:32.461Z,15.15
2023-05-17T20:04:58.932Z,15.22
2023-05-17T20:07:25.361Z,15.21
2023-05-17T20:09:51.771Z,15.16
2023-05-17T20:12:18.231Z,15.18
2023-05-17T20:14:44.723Z,15.43
2023-05-17T20:17:11.211Z,15.52
2023-05-17T20:19:37.641Z,15.42
2023-05-17T20:22:04.067Z,15.33
2023-05-17T20:24:30.540Z,15.33
2023-05-17T20:26:57.053Z,15.28
2023-05-17T20:29:23.765Z,15.04
2023-05-17T20:31:50.286Z,14.87
2023-05-17T20:34:16.834Z,15.04
2023-05-17T20:36:43.257Z,14.91
2023-05-17T20:39:09.716Z,14.87
2023-05-17T20:41:36.123Z,14.94
2023-05-17T20:44:02.585Z,14.96
2023-05-17T20:46:29.198Z,15.07
2023-05-17T20:48:55.998Z,15.25
2023-05-17T20:51:22.587Z,15.14
2023-05-17T20:53:49.059Z,14.92
2023-05-17T20:56:15.513Z,15.08
2023-05-17T20:58:42.162Z,15.18
2023-05-17T21:01:08.620Z,15.20
2023-05-17T21:03:35.150Z,15.19
2023-05-17T21:06:01.669Z,15.12
2023-05-17T21:08:28.129Z,15.11
2023-05-17T21:10:54.539Z,15.35
2023-05-17T21:13:21.055Z,15.27
2023-05-17T21:15:47.499Z,15.43
2023-05-17T21:18:13.961Z,15.50
2023-05-17T21:20:40.387Z,15.34
2023-05-17T21:23:06.869Z,15.23
2023-05-17T21:25:33.542Z,15.21
2023-05-17T21:28:00.118Z,15.02
2023-05-17T21:30:26.606Z,15.09
2023-05-17T21:32:53.129Z,15.07
2023-05-17T21:35:19.721Z,15.18
2023-05-17T21:37:46.176Z,15.06
2023-05-17T21:40:12.658Z,15.01
2023-05-17T21:42:39.135Z,15.14
2023-05-17T21:45:05.609Z,15.03
2023-05-17T21:47:32.088Z,15.17
2023-05-17T21:49:58.648Z,15.26
2023-05-17T21:52:25.089Z,15.11
2023-05-17T21:54:51.581Z,15.20
2023-05-17T21:57:18.056Z,15.10
2023-05-17T21:59:44.487Z,15.30
2023-05-17T22:02:10.917Z,15.19
2023-05-17T22:04:38.816Z,15.21
2023-05-17T22:07:05.361Z,15.06
2023-05-17T22:09:31.816Z,15.04
2023-05-17T22:11:58.421Z,15.07
2023-05-17T22:14:24.938Z,15.07
2023-05-17T22:16:51.375Z,15.14
2023-05-17T22:19:17.872Z,15.11
2023-05-17T22:21:44.362Z,15.02
2023-05-17T22:24:11.013Z,14.95
2023-05-17T22:26:37.469Z,15.14
2023-05-17T22:29:03.900Z,15.28
2023-05-17T22:31:30.471Z,15.21
2023-05-17T22:33:56.929Z,15.12
2023-05-17T22:36:23.375Z,15.22
2023-05-17T22:38:49.805Z,15.15
2023-05-17T22:41:16.266Z,15.10
2023-05-17T22:43:42.693Z,14.88
2023-05-17T22:46:09.343Z,14.72
2023-05-17T22:48:35.795Z,14.87
2023-05-17T22:51:02.220Z,14.88
2023-05-17T22:53:28.648Z,14.72
2023-05-17T22:55:55.126Z,14.74
2023-05-17T22:58:21.563Z,14.67
2023-05-17T23:00:48.043Z,14.34
2023-05-17T23:03:14.625Z,14.28
2023-05-17T23:05:41.097Z,14.41
2023-05-17T23:08:07.522Z,14.35
2023-05-17T23:10:33.949Z,14.29
2023-05-17T23:13:00.454Z,14.23
2023-05-17T23:15:27.057Z,14.42
2023-05-17T23:17:53.574Z,14.58
2023-05-17T23:20:20.071Z,14.40
2023-05-17T23:22:46.516Z,14.66
2023-05-17T23:25:13.054Z,14.76
2023-05-17T23:27:39.471Z,14.89
2023-05-17T23:30:05.904Z,14.77
2023-05-17T23:32:32.403Z,14.59
2023-05-17T23:34:58.926Z,14.37
2023-05-17T23:37:25.378Z,14.32
2023-05-17T23:39:51.817Z,14.06
2023-05-17T23:42:18.292Z,14.42
2023-05-17T23:44:44.716Z,14.18
2023-05-17T23:47:11.115Z,13.87
2023-05-17T23:49:37.529Z,14.10
2023-05-17T23:52:03.996Z,14.21
2023-05-17T23:54:30.426Z,13.99
2023-05-17T23:56:56.868Z,14.24
2023-05-17T23:59:23.321Z,14.28
